African Loon — 3EFF9 — position and weather

sailwx.info

Track history (hours):
 
Tides and Currents Weather Stations Pressure Air Temp Water Temp Dewpoint Dewpoint Depression Visibility Wind Speed Wind Dir Waves Ship Positions

African Loon

Last reported at 2017-Dec-03 08:00 UTC. Time now 2017-Dec-14 00:45 UTC.
Position S 24°39' W 046°29'.
Warning: this ship's position is 10 days out of date.

Length 200 m; draft 11.3 m.

Type: Cargo ship. MMSI: 374319000.

Date/timePositionNaut miles runAvg speedWind from/ knotsBaromVisibWave heightAir tempDewpointWater temp
2017-Dec-03 08:00S 24°39' W 046°29'612.0
2017-Dec-03 07:30S 24°34' W 046°27'611.7
2017-Dec-03 07:00S 24°28' W 046°25'611.8
2017-Dec-03 06:30S 24°22' W 046°24'611.8
2017-Dec-03 06:00S 24°16' W 046°24'612.0
2017-Dec-03 05:30S 24°10' W 046°23'611.3
2017-Dec-03 05:00S 24°05' W 046°22'5 9.6
2017-Dec-03 04:30S 24°00' W 046°20'3 6.1
2017-Dec-03 04:00S 23°59' W 046°17'0 0.2
2017-Dec-03 01:41S 23°58' W 046°17'0 0.0
2017-Dec-03 01:29S 23°58' W 046°17'0 0.0
2017-Dec-02 11:05S 23°58' W 046°17'0 0.0
2017-Dec-02 10:53S 23°58' W 046°17'0 0.0
2017-Dec-02 10:14S 23°58' W 046°17'0 0.0
2017-Dec-02 09:59S 23°58' W 046°17'0 0.0
2017-Dec-02 09:17S 23°58' W 046°17'0 0.0
2017-Dec-02 08:56S 23°58' W 046°17'0 0.0
2017-Dec-02 08:29S 23°58' W 046°17'0 0.0
2017-Dec-02 07:53S 23°58' W 046°17'0 0.0
2017-Dec-02 07:23S 23°58' W 046°17'0 0.0
2017-Dec-02 06:56S 23°58' W 046°17'0 0.0
2017-Dec-02 06:29S 23°58' W 046°17'0 0.0
2017-Dec-02 05:53S 23°58' W 046°17'0 0.0
2017-Dec-02 05:29S 23°58' W 046°17'0 0.0
2017-Dec-02 04:53S 23°58' W 046°17'0 0.0
2017-Dec-02 03:29S 23°58' W 046°17'0 0.0
2017-Dec-02 02:53S 23°58' W 046°17'0 0.0
2017-Dec-01 15:20S 23°58' W 046°17'0 0.0
2017-Dec-01 14:58S 23°58' W 046°17'0 0.0
2017-Dec-01 12:03S 23°58' W 046°17'0 0.1
2017-Dec-01 11:59S 23°58' W 046°17'2 3.3
2017-Dec-01 11:26S 23°57' W 046°19'3 6.9
2017-Dec-01 11:00S 23°55' W 046°21'  
2017-Nov-27 22:22S 23°53' W 046°23'2 6.1
2017-Nov-27 21:59S 23°55' W 046°22'4 7.9
2017-Nov-27 21:30S 23°57' W 046°18'3 6.0
2017-Nov-27 21:00S 23°60' W 046°20'4 8.5
2017-Nov-27 20:30S 24°04' W 046°21'2 3.3
2017-Nov-27 19:58S 24°05' W 046°19'0 0.0
2017-Nov-27 19:28S 24°05' W 046°19'0 0.0
2017-Nov-27 18:58S 24°05' W 046°19'0 0.0
2017-Nov-27 18:25S 24°05' W 046°19'0 0.0
2017-Nov-27 17:58S 24°05' W 046°19'0 0.0
2017-Nov-27 17:28S 24°05' W 046°19'0 0.0
2017-Nov-27 16:58S 24°05' W 046°19'0 0.0
2017-Nov-27 16:25S 24°05' W 046°19'0 0.0
2017-Nov-27 15:58S 24°05' W 046°19'0 0.0
2017-Nov-27 15:28S 24°05' W 046°19'0 0.0
2017-Nov-27 14:46S 24°05' W 046°19'0 0.0
2017-Nov-27 14:28S 24°05' W 046°19'0 0.0
2017-Nov-27 13:58S 24°05' W 046°19'0 0.0
2017-Nov-27 13:16S 24°05' W 046°19'0 0.0
2017-Nov-27 12:58S 24°05' W 046°19'0 0.0
2017-Nov-27 12:28S 24°05' W 046°19'0 0.0
2017-Nov-27 11:58S 24°05' W 046°19'0 0.0
2017-Nov-27 11:28S 24°05' W 046°19'0 0.0
2017-Nov-27 10:58S 24°05' W 046°19'0 0.0
2017-Nov-27 10:28S 24°05' W 046°19'0 0.0
2017-Nov-27 09:58S 24°05' W 046°19'0 0.1
2017-Nov-27 09:28S 24°05' W 046°19'0 0.1
2017-Nov-27 08:58S 24°05' W 046°19'0 0.0
2017-Nov-27 08:28S 24°05' W 046°19'0 0.0
2017-Nov-27 07:58S 24°05' W 046°19'0 0.0
2017-Nov-27 07:28S 24°05' W 046°19'0 0.0
2017-Nov-27 06:58S 24°05' W 046°19'0 0.0
2017-Nov-27 06:28S 24°05' W 046°19'0 0.0
2017-Nov-27 05:58S 24°05' W 046°19'0 0.0
2017-Nov-27 05:28S 24°05' W 046°19'0 0.0
2017-Nov-27 04:58S 24°05' W 046°19'0 0.1
2017-Nov-27 04:28S 24°05' W 046°19'0 0.0
2017-Nov-27 03:58S 24°05' W 046°19'0 0.2
2017-Nov-27 03:28S 24°05' W 046°19'0 0.1
2017-Nov-27 02:58S 24°05' W 046°19'0 0.1
2017-Nov-27 02:28S 24°05' W 046°19'0 0.1
2017-Nov-27 01:58S 24°05' W 046°19'0 0.0
2017-Nov-27 01:28S 24°05' W 046°19'0 0.0
2017-Nov-27 00:55S 24°05' W 046°19'0 0.1
2017-Nov-27 00:22S 24°05' W 046°19'0 0.1
2017-Nov-26 23:58S 24°05' W 046°19'0 0.1
2017-Nov-26 23:28S 24°05' W 046°19'0 0.1
2017-Nov-26 22:58S 24°05' W 046°19'0 0.0
2017-Nov-26 22:28S 24°05' W 046°19'0 0.0
2017-Nov-26 21:58S 24°05' W 046°19'0 0.0
2017-Nov-26 21:22S 24°05' W 046°19'0 0.0
2017-Nov-26 20:55S 24°05' W 046°19'0 0.0
2017-Nov-26 20:28S 24°05' W 046°19'0 0.1
2017-Nov-26 19:55S 24°05' W 046°19'0 0.2
2017-Nov-26 19:28S 24°05' W 046°19'0 0.3
2017-Nov-26 18:58S 24°05' W 046°19'1 1.6
2017-Nov-26 18:30S 24°06' W 046°19'3 5.6
2017-Nov-26 18:00S 24°08' W 046°20'3 6.8
2017-Nov-26 17:30S 24°12' W 046°22'510.9
2017-Nov-26 17:00S 24°17' W 046°23'612.5
2017-Nov-26 16:30S 24°23' W 046°23'713.1
2017-Nov-26 16:00S 24°30' W 046°21'612.6
2017-Nov-26 15:30S 24°31' W 046°15'713.0
2017-Nov-26 15:00S 24°32' W 046°08'612.8
2017-Nov-26 14:30S 24°33' W 046°01'612.8
2017-Nov-26 14:00S 24°34' W 045°54'612.7
2017-Nov-26 13:30S 24°34' W 045°47'612.6
2017-Nov-26 13:00S 24°35' W 045°40'612.7
2017-Nov-26 12:30S 24°36' W 045°33'712.7
2017-Nov-26 11:59S 24°37' W 045°26'612.6
2017-Nov-26 11:30S 24°39' W 045°19'612.7
2017-Nov-26 11:00S 24°40' W 045°12'  
Track history (hours):
 
Tides and Currents Weather Stations Pressure Air Temp Water Temp Dewpoint Dewpoint Depression Visibility Wind Speed Wind Dir Waves Ship Positions

African Loon

Last reported at 2017-Dec-03 08:00 UTC. Time now 2017-Dec-14 00:45 UTC.
Position S 24°39' W 046°29'.
Warning: this ship's position is 10 days out of date.

Length 200 m; draft 11.3 m.

Type: Cargo ship. MMSI: 374319000.

Date/timePositionNaut miles runAvg speedWind from/ knotsBaromVisibWave heightAir tempDewpointWater temp
2017-Dec-03 08:00S 24°39' W 046°29'612.0
2017-Dec-03 07:30S 24°34' W 046°27'611.7
2017-Dec-03 07:00S 24°28' W 046°25'611.8
2017-Dec-03 06:30S 24°22' W 046°24'611.8
2017-Dec-03 06:00S 24°16' W 046°24'612.0
2017-Dec-03 05:30S 24°10' W 046°23'611.3
2017-Dec-03 05:00S 24°05' W 046°22'5 9.6
2017-Dec-03 04:30S 24°00' W 046°20'3 6.1
2017-Dec-03 04:00S 23°59' W 046°17'0 0.2
2017-Dec-03 01:41S 23°58' W 046°17'0 0.0
2017-Dec-03 01:29S 23°58' W 046°17'0 0.0
2017-Dec-02 11:05S 23°58' W 046°17'0 0.0
2017-Dec-02 10:53S 23°58' W 046°17'0 0.0
2017-Dec-02 10:14S 23°58' W 046°17'0 0.0
2017-Dec-02 09:59S 23°58' W 046°17'0 0.0
2017-Dec-02 09:17S 23°58' W 046°17'0 0.0
2017-Dec-02 08:56S 23°58' W 046°17'0 0.0
2017-Dec-02 08:29S 23°58' W 046°17'0 0.0
2017-Dec-02 07:53S 23°58' W 046°17'0 0.0
2017-Dec-02 07:23S 23°58' W 046°17'0 0.0
2017-Dec-02 06:56S 23°58' W 046°17'0 0.0
2017-Dec-02 06:29S 23°58' W 046°17'0 0.0
2017-Dec-02 05:53S 23°58' W 046°17'0 0.0
2017-Dec-02 05:29S 23°58' W 046°17'0 0.0
2017-Dec-02 04:53S 23°58' W 046°17'0 0.0
2017-Dec-02 03:29S 23°58' W 046°17'0 0.0
2017-Dec-02 02:53S 23°58' W 046°17'0 0.0
2017-Dec-01 15:20S 23°58' W 046°17'0 0.0
2017-Dec-01 14:58S 23°58' W 046°17'0 0.0
2017-Dec-01 12:03S 23°58' W 046°17'0 0.1
2017-Dec-01 11:59S 23°58' W 046°17'2 3.3
2017-Dec-01 11:26S 23°57' W 046°19'3 6.9
2017-Dec-01 11:00S 23°55' W 046°21'  
2017-Nov-27 22:22S 23°53' W 046°23'2 6.1
2017-Nov-27 21:59S 23°55' W 046°22'4 7.9
2017-Nov-27 21:30S 23°57' W 046°18'3 6.0
2017-Nov-27 21:00S 23°60' W 046°20'4 8.5
2017-Nov-27 20:30S 24°04' W 046°21'2 3.3
2017-Nov-27 19:58S 24°05' W 046°19'0 0.0
2017-Nov-27 19:28S 24°05' W 046°19'0 0.0
2017-Nov-27 18:58S 24°05' W 046°19'0 0.0
2017-Nov-27 18:25S 24°05' W 046°19'0 0.0
2017-Nov-27 17:58S 24°05' W 046°19'0 0.0
2017-Nov-27 17:28S 24°05' W 046°19'0 0.0
2017-Nov-27 16:58S 24°05' W 046°19'0 0.0
2017-Nov-27 16:25S 24°05' W 046°19'0 0.0
2017-Nov-27 15:58S 24°05' W 046°19'0 0.0
2017-Nov-27 15:28S 24°05' W 046°19'0 0.0
2017-Nov-27 14:46S 24°05' W 046°19'0 0.0
2017-Nov-27 14:28S 24°05' W 046°19'0 0.0
2017-Nov-27 13:58S 24°05' W 046°19'0 0.0
2017-Nov-27 13:16S 24°05' W 046°19'0 0.0
2017-Nov-27 12:58S 24°05' W 046°19'0 0.0
2017-Nov-27 12:28S 24°05' W 046°19'0 0.0
2017-Nov-27 11:58S 24°05' W 046°19'0 0.0
2017-Nov-27 11:28S 24°05' W 046°19'0 0.0
2017-Nov-27 10:58S 24°05' W 046°19'0 0.0
2017-Nov-27 10:28S 24°05' W 046°19'0 0.0
2017-Nov-27 09:58S 24°05' W 046°19'0 0.1
2017-Nov-27 09:28S 24°05' W 046°19'0 0.1
2017-Nov-27 08:58S 24°05' W 046°19'0 0.0
2017-Nov-27 08:28S 24°05' W 046°19'0 0.0
2017-Nov-27 07:58S 24°05' W 046°19'0 0.0
2017-Nov-27 07:28S 24°05' W 046°19'0 0.0
2017-Nov-27 06:58S 24°05' W 046°19'0 0.0
2017-Nov-27 06:28S 24°05' W 046°19'0 0.0
2017-Nov-27 05:58S 24°05' W 046°19'0 0.0
2017-Nov-27 05:28S 24°05' W 046°19'0 0.0
2017-Nov-27 04:58S 24°05' W 046°19'0 0.1
2017-Nov-27 04:28S 24°05' W 046°19'0 0.0
2017-Nov-27 03:58S 24°05' W 046°19'0 0.2
2017-Nov-27 03:28S 24°05' W 046°19'0 0.1
2017-Nov-27 02:58S 24°05' W 046°19'0 0.1
2017-Nov-27 02:28S 24°05' W 046°19'0 0.1
2017-Nov-27 01:58S 24°05' W 046°19'0 0.0
2017-Nov-27 01:28S 24°05' W 046°19'0 0.0
2017-Nov-27 00:55S 24°05' W 046°19'0 0.1
2017-Nov-27 00:22S 24°05' W 046°19'0 0.1
2017-Nov-26 23:58S 24°05' W 046°19'0 0.1
2017-Nov-26 23:28S 24°05' W 046°19'0 0.1
2017-Nov-26 22:58S 24°05' W 046°19'0 0.0
2017-Nov-26 22:28S 24°05' W 046°19'0 0.0
2017-Nov-26 21:58S 24°05' W 046°19'0 0.0
2017-Nov-26 21:22S 24°05' W 046°19'0 0.0
2017-Nov-26 20:55S 24°05' W 046°19'0 0.0
2017-Nov-26 20:28S 24°05' W 046°19'0 0.1
2017-Nov-26 19:55S 24°05' W 046°19'0 0.2
2017-Nov-26 19:28S 24°05' W 046°19'0 0.3
2017-Nov-26 18:58S 24°05' W 046°19'1 1.6
2017-Nov-26 18:30S 24°06' W 046°19'3 5.6
2017-Nov-26 18:00S 24°08' W 046°20'3 6.8
2017-Nov-26 17:30S 24°12' W 046°22'510.9
2017-Nov-26 17:00S 24°17' W 046°23'612.5
2017-Nov-26 16:30S 24°23' W 046°23'713.1
2017-Nov-26 16:00S 24°30' W 046°21'612.6
2017-Nov-26 15:30S 24°31' W 046°15'713.0
2017-Nov-26 15:00S 24°32' W 046°08'612.8
2017-Nov-26 14:30S 24°33' W 046°01'612.8
2017-Nov-26 14:00S 24°34' W 045°54'612.7
2017-Nov-26 13:30S 24°34' W 045°47'612.6
2017-Nov-26 13:00S 24°35' W 045°40'612.7
2017-Nov-26 12:30S 24°36' W 045°33'712.7
2017-Nov-26 11:59S 24°37' W 045°26'612.6
2017-Nov-26 11:30S 24°39' W 045°19'612.7
2017-Nov-26 11:00S 24°40' W 045°12'  

Dump ship's entire track history